»·PEaware :: N46299 KBFL-KBFL

N46299 :: KBFL-KBFL

FLIGHT INFORMATION

Flight Status: Arrived
Operator: Privately registered:
United States
More flights under this callsign
Pilot: Victor C. (32144)
Aircraft: CESSNA 172 SKYHAWK
(C172)
More flights by this aircraft type
Origin: KBFL Meadows
United States
Destination: KBFL Meadows
United States
More flights between these airports :: More routes between these airports
Route:
File this flight plan on PilotEdge
Remarks: nffw
Altitude:
(Current/Filed)
0ft
Speed:
(Current/Filed)
0kts
Departed: 11-Jan-21 11:45 AM
Arrived: 11-Jan-21 12:35 PM
Distance/Time
Traveled:
0nm/0:50
Distance/Time
To Go:
Arrived

Flight Plot

Page will automatically refresh every two minutes.


Map Options




Map Legend


Flown Route
Filed Route
Departure Airport
Arrival Airport
Navaid (VOR, NDB)
Fix

Horizontal Profiles

Position Reports

Time Latitude Longitude Heading Altitude Ground
Speed
11-Jan-21 11:43 35.659947 -119.411150 5 2283ft 86kts
11-Jan-21 11:44 35.670484 -119.387703 113 2679ft 91kts
11-Jan-21 11:45 35.651428 -119.369543 128 2844ft 89kts
11-Jan-21 11:46 35.637736 -119.344319 136 2878ft 89kts
11-Jan-21 11:47 35.615321 -119.331563 150 2884ft 90kts
11-Jan-21 11:48 35.592516 -119.317790 150 3055ft 96kts
11-Jan-21 11:49 35.569409 -119.298899 141 3503ft 103kts
11-Jan-21 11:50 35.546554 -119.278487 145 3676ft 101kts
11-Jan-21 11:51 35.522528 -119.259341 146 3718ft 101kts
11-Jan-21 11:52 35.498561 -119.238972 143 3483ft 107kts
11-Jan-21 11:53 35.475152 -119.219050 139 3289ft 100kts
11-Jan-21 11:54 35.460421 -119.190551 119 2739ft 91kts
11-Jan-21 11:55 35.446310 -119.164996 115 2196ft 84kts
11-Jan-21 11:56 35.437280 -119.138674 113 1606ft 92kts
11-Jan-21 11:57 35.428164 -119.114648 92 1351ft 80kts
11-Jan-21 11:58 35.431548 -119.087779 80 1423ft 81kts
11-Jan-21 11:59 35.422305 -119.066876 141 1286ft 76kts
11-Jan-21 12:00 35.415599 -119.046423 35 961ft 82kts
11-Jan-21 12:01 35.431418 -119.056847 310 479ft 48kts
11-Jan-21 12:02 35.445306 -119.073791 305 956ft 80kts
11-Jan-21 12:03 35.431400 -119.089576 148 1472ft 90kts
11-Jan-21 12:04 35.415695 -119.067451 127 1466ft 85kts
11-Jan-21 12:05 35.405645 -119.044419 56 1210ft 87kts
11-Jan-21 12:06 35.422248 -119.045806 312 700ft 68kts
11-Jan-21 12:07 35.433946 -119.059872 315 486ft 51kts
11-Jan-21 12:08 35.447069 -119.078615 242 1072ft 79kts
11-Jan-21 12:09 35.429520 -119.081058 135 1487ft 85kts
11-Jan-21 12:10 35.415158 -119.059990 141 1469ft 78kts
11-Jan-21 12:11 35.414520 -119.039773 8 1094ft 72kts
11-Jan-21 12:12 35.429682 -119.054745 314 526ft 66kts
11-Jan-21 12:13 35.442914 -119.070298 314 792ft 77kts
11-Jan-21 12:14 35.439103 -119.088707 157 1439ft 91kts
11-Jan-21 12:15 35.421685 -119.068393 132 1542ft 83kts
11-Jan-21 12:16 35.411297 -119.044863 46 1389ft 91kts
11-Jan-21 12:17 35.427287 -119.051877 313 626ft 67kts
11-Jan-21 12:18 35.440670 -119.067903 314 660ft 85kts
11-Jan-21 12:19 35.448604 -119.090966 234 1425ft 84kts
11-Jan-21 12:20 35.431514 -119.082532 137 1556ft 84kts
11-Jan-21 12:21 35.415583 -119.061348 134 1525ft 84kts
11-Jan-21 12:22 35.427328 -119.052013 316 576ft 75kts
11-Jan-21 12:23 35.440930 -119.068546 310 729ft 82kts
11-Jan-21 12:24 35.447606 -119.093206 222 1393ft 88kts
11-Jan-21 12:25 35.431991 -119.084631 131 1502ft 73kts
11-Jan-21 12:26 35.419316 -119.065021 131 1537ft 74kts
11-Jan-21 12:27 35.418313 -119.045699 6 1190ft 79kts
11-Jan-21 12:28 35.433734 -119.059631 317 486ft 61kts
11-Jan-21 12:29 35.450404 -119.079234 309 1073ft 88kts
11-Jan-21 12:30 35.438748 -119.087369 136 1554ft 75kts
11-Jan-21 12:31 35.424225 -119.068712 138 1624ft 75kts
11-Jan-21 12:32 35.411949 -119.048882 66 1431ft 84kts
11-Jan-21 12:33 35.428418 -119.053216 315 532ft 74kts
11-Jan-21 12:34 35.434064 -119.060888 200 488ft 0kts
11-Jan-21 12:35 35.434064 -119.060888 200 488ft 0kts
11-Jan-21 12:36 35.434064 -119.060888 200 488ft 0kts
11-Jan-21 12:37 35.434064 -119.060888 200 488ft 0kts
11-Jan-21 12:38 35.430763 -119.057139 136 480ft 20kts
11-Jan-21 12:39 35.427514 -119.053197 135 477ft 12kts
11-Jan-21 12:40 35.428016 -119.050853 44 483ft 0kts
11-Jan-21 12:41 35.428016 -119.050853 44 483ft 0kts
11-Jan-21 12:42 35.428016 -119.050853 44 483ft 0kts
11-Jan-21 12:43 35.431166 -119.052979 315 485ft 60kts
11-Jan-21 12:44 35.444479 -119.068995 314 511ft 19kts
11-Jan-21 12:45 35.446928 -119.070334 57 509ft 0kts
11-Jan-21 12:46 35.445561 -119.068095 137 509ft 15kts
11-Jan-21 12:47 35.440899 -119.062456 135 497ft 31kts
11-Jan-21 12:48 35.435666 -119.056126 136 493ft 23kts

Navigation Log

Ident Type
Flight plan parsing failed, navigation log unavailable